Time;durP1;ratioP1;P1;durP2;ratioP2;P2;SDS_P1;SDS_P2;PMS_P1;PMS_P2;Temp;Humidity;BMP_temperature;BMP_pressure;BME280_temperature;BME280_humidity;BME280_pressure;Samples;Min_cycle;Max_cycle;Signal;HPM_P1;HPM_P2
2021/04/22 00:01:20;;;;;;;1.67;1.57;;;;;;;6.83;55.16;99413.41;5078508;28;20762;-73
2021/04/22 00:03:47;;;;;;;3.37;2.00;;;;;;;6.71;53.46;99381.44;5080782;28;20631;-73
2021/04/22 00:06:15;;;;;;;5.60;3.50;;;;;;;6.90;54.05;99412.97;5084496;28;20195;-73
2021/04/22 00:08:42;;;;;;;2.60;1.63;;;;;;;6.85;54.52;99411.50;5082856;28;20210;-73
2021/04/22 00:11:10;;;;;;;3.07;2.50;;;;;;;6.83;54.79;99412.56;5082280;28;20252;-73
2021/04/22 00:13:38;;;;;;;0.80;0.60;;;;;;;6.80;55.74;99426.16;5076519;28;20192;-73
2021/04/22 00:16:06;;;;;;;1.33;1.03;;;;;;;6.60;54.69;99400.06;5082551;28;20597;-73
2021/04/22 00:18:34;;;;;;;0.67;0.60;;;;;;;6.75;54.74;99418.47;5076066;28;20708;-73
2021/04/22 00:21:01;;;;;;;0.80;0.70;;;;;;;6.64;55.03;99414.88;5086025;28;20215;-73
2021/04/22 00:23:29;;;;;;;0.63;0.63;;;;;;;6.66;54.70;99420.94;5076520;28;20349;-73
2021/04/22 00:25:57;;;;;;;0.47;0.47;;;;;;;6.41;55.64;99395.19;5082884;28;20198;-73
2021/04/22 00:28:24;;;;;;;1.37;0.60;;;;;;;6.59;55.38;99430.38;5079893;28;20203;-73
2021/04/22 00:30:52;;;;;;;1.00;0.93;;;;;;;6.53;56.88;99426.34;5081392;28;20202;-73
2021/04/22 00:33:22;;;;;;;0.60;0.60;;;;;;;6.46;56.99;99425.09;5090107;28;20666;-73
2021/04/22 00:35:51;;;;;;;0.37;0.30;;;;;;;6.39;57.16;99429.97;5080085;28;20207;-74
2021/04/22 00:38:18;;;;;;;0.87;0.60;;;;;;;6.38;57.51;99435.41;5078454;28;20244;-73
2021/04/22 00:40:47;;;;;;;1.97;0.50;;;;;;;6.23;59.55;99424.06;5085620;28;20201;-74
2021/04/22 00:43:16;;;;;;;0.50;0.50;;;;;;;6.24;59.58;99441.75;5076234;28;20230;-72
2021/04/22 00:45:45;;;;;;;0.30;0.30;;;;;;;6.17;58.65;99437.81;5085233;28;20194;-74
2021/04/22 00:48:15;;;;;;;0.30;0.30;;;;;;;6.20;58.34;99434.94;5090217;28;20200;-74
2021/04/22 00:50:47;;;;;;;0.70;0.40;;;;;;;6.17;59.19;99437.81;5083341;28;20209;-74
2021/04/22 00:53:15;;;;;;;1.00;0.50;;;;;;;6.05;59.47;99428.00;5082864;28;20667;-73
2021/04/22 00:55:43;;;;;;;0.43;0.43;;;;;;;6.03;60.66;99440.59;5087070;28;20611;-73
2021/04/22 00:58:11;;;;;;;1.00;0.63;;;;;;;5.63;61.98;99395.41;5079381;28;20671;-74
2021/04/22 01:00:41;;;;;;;0.70;0.43;;;;;;;5.90;61.54;99440.59;5081387;28;20199;-74
2021/04/22 01:03:09;;;;;;;0.93;0.87;;;;;;;5.85;62.06;99430.25;5080793;28;20219;-73
2021/04/22 01:05:39;;;;;;;0.73;0.60;;;;;;;5.67;64.05;99441.31;5082786;28;20195;-74
2021/04/22 01:08:06;;;;;;;0.63;0.50;;;;;;;5.51;66.41;99446.81;5078737;28;20503;-74
2021/04/22 01:10:35;;;;;;;0.20;0.20;;;;;;;5.34;66.41;99432.00;5075703;28;20264;-74
2021/04/22 01:13:03;;;;;;;1.63;0.70;;;;;;;5.44;65.44;99445.53;5086052;28;20194;-73
2021/04/22 01:15:31;;;;;;;1.93;0.77;;;;;;;5.30;64.05;99411.88;5072554;28;20226;-74
2021/04/22 01:17:59;;;;;;;1.20;0.70;;;;;;;5.56;64.12;99448.22;5084344;28;20258;-73
2021/04/22 01:20:29;;;;;;;0.63;0.40;;;;;;;5.56;62.85;99434.06;5080101;28;20193;-74
2021/04/22 01:23:01;;;;;;;0.73;0.50;;;;;;;5.62;62.02;99446.94;5078553;28;20216;-74
2021/04/22 01:25:30;;;;;;;1.17;0.73;;;;;;;5.59;64.03;99449.81;5078879;28;20699;-74
2021/04/22 01:27:58;;;;;;;0.83;0.30;;;;;;;5.33;64.00;99413.47;5079449;28;20204;-74
2021/04/22 01:30:28;;;;;;;0.83;0.53;;;;;;;5.43;64.18;99439.34;5077738;28;20258;-74
2021/04/22 01:32:56;;;;;;;1.90;0.30;;;;;;;5.46;67.33;99460.44;5104090;27;20197;-73
2021/04/22 01:35:26;;;;;;;0.33;0.33;;;;;;;5.47;64.93;99458.63;5080175;28;20699;-74
2021/04/22 01:37:54;;;;;;;1.87;0.57;;;;;;;5.50;65.24;99466.41;5077786;28;20197;-74
2021/04/22 01:40:23;;;;;;;0.30;0.30;;;;;;;5.41;65.74;99469.69;5074734;28;20239;-74
2021/04/22 01:42:53;;;;;;;2.53;0.23;;;;;;;5.33;66.18;99461.38;5076859;28;20597;-74
2021/04/22 01:45:21;;;;;;;0.43;0.43;;;;;;;5.37;65.75;99462.88;5076777;28;20189;-74
2021/04/22 01:47:48;;;;;;;0.43;0.40;;;;;;;5.42;64.22;99461.59;5076723;28;20318;-73
2021/04/22 01:50:18;;;;;;;0.60;0.60;;;;;;;5.28;67.11;99459.03;5079840;28;20205;-74
2021/04/22 01:52:46;;;;;;;0.20;0.20;;;;;;;5.09;68.88;99445.22;5076042;28;20206;-73
2021/04/22 01:55:16;;;;;;;2.20;0.60;;;;;;;5.20;65.78;99453.34;5076386;28;20238;-73
2021/04/22 01:57:44;;;;;;;1.40;0.50;;;;;;;5.06;68.41;99456.94;5079048;28;20208;-73
2021/04/22 02:00:14;;;;;;;0.37;0.37;;;;;;;5.04;67.60;99464.16;5075075;28;20691;-73
2021/04/22 02:02:42;;;;;;;0.33;0.33;;;;;;;4.40;68.43;99367.31;5075186;28;20232;-73
2021/04/22 02:05:11;;;;;;;0.43;0.43;;;;;;;4.80;70.34;99463.09;5082743;28;20234;-73
2021/04/22 02:07:38;;;;;;;0.63;0.63;;;;;;;4.92;68.99;99475.63;5086566;28;20275;-74
2021/04/22 02:10:08;;;;;;;125.70;85.67;;;;;;;4.74;67.82;99460.84;5079043;28;20227;-74
2021/04/22 02:12:36;;;;;;;12.63;5.60;;;;;;;4.44;68.43;99419.31;5075335;28;20220;-74
2021/04/22 02:15:06;;;;;;;3.13;1.70;;;;;;;4.81;69.68;99480.75;5079450;28;20204;-74
2021/04/22 02:17:34;;;;;;;2.10;1.33;;;;;;;4.87;68.94;99491.84;5075471;28;20201;-74
2021/04/22 02:20:01;;;;;;;1.93;1.50;;;;;;;4.94;68.79;99485.19;5079355;28;20216;-74
2021/04/22 02:22:29;;;;;;;2.00;1.20;;;;;;;5.02;70.20;99494.47;5078532;28;20197;-74
2021/04/22 02:24:56;;;;;;;1.50;1.40;;;;;;;5.08;69.81;99496.72;5081054;28;20720;-74
2021/04/22 02:27:23;;;;;;;0.90;0.90;;;;;;;5.13;71.03;99494.63;5077091;28;20204;-74
2021/04/22 02:29:50;;;;;;;1.97;1.23;;;;;;;5.19;68.13;99494.22;5080140;28;20202;-74
2021/04/22 02:32:19;;;;;;;1.37;0.80;;;;;;;4.89;69.07;99443.88;5079331;28;20257;-74
2021/04/22 02:34:46;;;;;;;0.47;0.47;;;;;;;5.20;69.23;99498.56;5077123;28;20221;-74
2021/04/22 02:37:13;;;;;;;8.47;1.50;;;;;;;5.19;68.88;99494.22;5082092;28;20683;-74
2021/04/22 02:39:41;;;;;;;1.93;1.23;;;;;;;5.27;69.15;99498.09;5085670;28;20224;-75
2021/04/22 02:42:08;;;;;;;1.53;1.27;;;;;;;5.23;70.65;99506.38;5082436;28;20499;-75
2021/04/22 02:44:39;;;;;;;1.00;0.60;;;;;;;4.72;69.81;99430.84;5080429;28;20220;-75
2021/04/22 02:47:07;;;;;;;0.50;0.50;;;;;;;5.20;69.44;99510.09;5081633;28;20555;-74
2021/04/22 02:49:35;;;;;;;1.50;0.40;;;;;;;5.19;69.11;99500.38;5081384;28;20730;-74
2021/04/22 02:52:03;;;;;;;0.20;0.20;;;;;;;5.13;70.02;99506.13;5080335;28;20570;-74
2021/04/22 02:54:30;;;;;;;1.60;0.47;;;;;;;5.09;69.91;99501.94;5078114;28;20231;-75
2021/04/22 02:56:58;;;;;;;0.33;0.33;;;;;;;4.75;69.46;99451.91;5082069;28;20664;-74
2021/04/22 02:59:25;;;;;;;0.80;0.30;;;;;;;4.88;71.88;99487.38;5083683;28;20679;-75
2021/04/22 03:01:53;;;;;;;2.20;0.37;;;;;;;4.99;72.19;99512.34;5084740;28;20668;-74
2021/04/22 03:04:20;;;;;;;0.20;0.20;;;;;;;4.97;71.70;99513.41;5081890;28;20227;-74
2021/04/22 03:06:49;;;;;;;0.40;0.30;;;;;;;5.02;70.69;99519.28;5086127;28;20213;-70
2021/04/22 03:09:17;;;;;;;0.50;0.20;;;;;;;5.01;70.26;99522.88;5081985;28;20204;-75
2021/04/22 03:11:44;;;;;;;0.10;0.10;;;;;;;4.97;71.56;99521.38;5083723;28;20243;-75
2021/04/22 03:14:12;;;;;;;0.10;0.10;;;;;;;4.90;71.66;99525.41;5087912;28;20265;-75
2021/04/22 03:16:39;;;;;;;0.20;0.20;;;;;;;4.88;72.83;99525.47;5086835;28;20205;-75
2021/04/22 03:19:07;;;;;;;0.37;0.37;;;;;;;4.95;72.43;99525.94;5086253;28;20196;-74
2021/04/22 03:21:34;;;;;;;0.10;0.10;;;;;;;4.87;73.04;99530.88;5087637;28;20581;-73
2021/04/22 03:24:03;;;;;;;0.40;0.40;;;;;;;4.92;72.44;99527.00;5080533;28;20593;-73
2021/04/22 03:26:30;;;;;;;0.20;0.20;;;;;;;4.78;72.64;99505.75;5081364;28;20208;-74
2021/04/22 03:28:57;;;;;;;0.10;0.10;;;;;;;4.92;72.06;99535.00;5081257;28;20200;-74
2021/04/22 03:31:26;;;;;;;0.10;0.10;;;;;;;4.88;71.99;99522.81;5083121;28;20262;-74
2021/04/22 03:33:54;;;;;;;0.00;0.00;;;;;;;4.98;71.49;99539.06;5084066;28;20201;-73
2021/04/22 03:36:21;;;;;;;0.20;0.20;;;;;;;4.91;72.07;99543.06;5081701;28;20623;-74
2021/04/22 03:38:48;;;;;;;0.20;0.20;;;;;;;4.87;71.87;99547.69;5079700;28;20197;-73
2021/04/22 03:41:17;;;;;;;0.40;0.40;;;;;;;4.79;72.98;99549.16;5083390;28;20207;-73
2021/04/22 03:43:44;;;;;;;0.23;0.23;;;;;;;4.68;74.06;99553.34;5080917;28;20226;-73
2021/04/22 03:46:11;;;;;;;0.13;0.13;;;;;;;4.71;74.36;99559.41;5081605;28;20200;-74
2021/04/22 03:48:39;;;;;;;0.20;0.20;;;;;;;4.56;74.96;99559.41;5080216;28;20208;-74
2021/04/22 03:51:06;;;;;;;0.10;0.10;;;;;;;4.68;73.07;99560.47;5081938;28;20210;-74
2021/04/22 03:53:34;;;;;;;0.30;0.30;;;;;;;4.72;72.84;99559.31;5080775;28;20193;-73
2021/04/22 03:56:01;;;;;;;0.13;0.13;;;;;;;4.72;72.45;99566.44;5086083;28;20215;-73
2021/04/22 03:58:29;;;;;;;0.30;0.30;;;;;;;4.76;72.44;99563.50;5078497;28;20737;-73
2021/04/22 04:00:57;;;;;;;1.03;0.40;;;;;;;4.67;72.98;99564.94;5077994;28;20200;-74
2021/04/22 04:03:24;;;;;;;0.30;0.30;;;;;;;4.66;71.73;99555.25;5078546;28;20558;-74
2021/04/22 04:05:51;;;;;;;0.20;0.20;;;;;;;4.70;73.08;99555.91;5079017;28;20686;-75
2021/04/22 04:08:19;;;;;;;113.00;58.43;;;;;;;4.73;72.65;99561.03;5076914;28;20211;-75
2021/04/22 04:10:46;;;;;;;4.50;2.80;;;;;;;4.76;71.79;99565.28;5082319;28;20228;-75
2021/04/22 04:13:13;;;;;;;1.27;1.20;;;;;;;4.64;72.42;99565.13;5077873;28;20198;-75
2021/04/22 04:15:45;;;;;;;0.57;0.57;;;;;;;4.62;73.46;99569.69;5077406;28;20201;-75
2021/04/22 04:18:13;;;;;;;1.60;1.50;;;;;;;4.55;73.22;99556.84;5085131;28;20197;-74
2021/04/22 04:20:41;;;;;;;0.97;0.80;;;;;;;4.43;73.12;99553.16;5084737;28;20221;-75
2021/04/22 04:23:08;;;;;;;1.40;1.30;;;;;;;4.59;73.01;99575.19;5088342;28;20719;-76
2021/04/22 04:25:36;;;;;;;6.47;5.13;;;;;;;4.62;73.42;99585.63;5091126;28;20200;-76
2021/04/22 04:28:03;;;;;;;2.90;2.63;;;;;;;4.71;73.87;99591.31;5083521;28;20203;-76
2021/04/22 04:30:31;;;;;;;0.40;0.40;;;;;;;4.61;73.19;99588.41;5081208;28;20212;-75
2021/04/22 04:32:59;;;;;;;0.87;0.87;;;;;;;4.60;73.87;99595.50;5073753;28;20197;-76
2021/04/22 04:35:27;;;;;;;0.40;0.40;;;;;;;4.49;74.32;99603.28;5079577;28;20217;-75
2021/04/22 04:37:54;;;;;;;0.40;0.40;;;;;;;4.29;75.71;99598.34;5074238;28;20267;-74
2021/04/22 04:40:22;;;;;;;0.70;0.40;;;;;;;4.41;75.41;99613.53;5083959;28;20259;-75
2021/04/22 04:42:49;;;;;;;1.73;1.60;;;;;;;4.32;76.28;99609.63;5084037;28;20209;-72
2021/04/22 04:45:19;;;;;;;0.67;0.67;;;;;;;4.29;76.15;99614.28;5076330;28;20204;-75
2021/04/22 04:47:48;;;;;;;0.17;0.17;;;;;;;4.40;74.82;99622.44;5076367;28;20217;-76
2021/04/22 04:50:17;;;;;;;0.20;0.20;;;;;;;4.28;75.15;99628.50;5086772;28;20532;-74
2021/04/22 04:52:45;;;;;;;0.10;0.10;;;;;;;4.30;75.44;99621.31;5069543;28;20542;-74
2021/04/22 04:55:14;;;;;;;0.27;0.20;;;;;;;4.34;74.54;99636.13;5073778;28;20205;-74
2021/04/22 04:57:42;;;;;;;0.10;0.10;;;;;;;4.24;74.27;99629.63;5079146;28;20664;-75
2021/04/22 05:00:12;;;;;;;0.10;0.10;;;;;;;4.29;74.18;99640.84;5072508;28;20207;-74
2021/04/22 05:02:39;;;;;;;0.00;0.00;;;;;;;3.85;74.61;99566.44;5068746;28;20204;-74
2021/04/22 05:05:09;;;;;;;0.10;0.10;;;;;;;4.31;75.02;99638.97;5074928;28;20244;-74
2021/04/22 05:07:38;;;;;;;0.00;0.00;;;;;;;4.33;74.28;99637.91;5070225;28;20247;-75
2021/04/22 05:10:07;;;;;;;0.10;0.10;;;;;;;4.17;75.31;99630.94;5067995;28;20703;-75
2021/04/22 05:12:35;;;;;;;0.00;0.00;;;;;;;4.27;74.67;99653.34;5068790;28;20710;-74
2021/04/22 05:15:04;;;;;;;0.50;0.20;;;;;;;4.27;74.94;99640.91;5070559;28;20237;-74
2021/04/22 05:17:32;;;;;;;0.17;0.17;;;;;;;4.25;74.11;99648.13;5070291;28;20308;-74
2021/04/22 05:19:59;;;;;;;0.10;0.10;;;;;;;4.19;75.68;99655.63;5076207;28;20266;-72
2021/04/22 05:22:27;;;;;;;0.10;0.10;;;;;;;3.64;75.27;99574.72;5075329;28;20266;-73
2021/04/22 05:24:55;;;;;;;0.10;0.10;;;;;;;4.23;74.53;99663.31;5077408;28;20272;-73
2021/04/22 05:27:22;;;;;;;0.20;0.20;;;;;;;4.18;76.31;99685.78;5074801;28;20561;-74
2021/04/22 05:29:49;;;;;;;0.20;0.20;;;;;;;4.04;76.59;99681.28;5072981;28;20259;-75
2021/04/22 05:32:17;;;;;;;0.00;0.00;;;;;;;4.12;75.43;99687.00;5077486;28;20681;-74
2021/04/22 05:34:45;;;;;;;0.10;0.10;;;;;;;4.04;76.07;99689.25;5073819;28;20199;-74
2021/04/22 05:37:18;;;;;;;0.20;0.10;;;;;;;4.02;76.61;99696.47;5069931;28;20220;-72
2021/04/22 05:39:46;;;;;;;0.10;0.10;;;;;;;4.11;76.22;99695.91;5066321;28;20197;-73
2021/04/22 05:42:14;;;;;;;0.10;0.10;;;;;;;4.09;75.28;99699.63;5065886;28;20562;-74
2021/04/22 05:44:43;;;;;;;0.00;0.00;;;;;;;4.05;75.98;99696.28;5068982;28;20217;-74
2021/04/22 05:47:10;;;;;;;0.20;0.20;;;;;;;4.00;76.20;99690.38;5070239;28;20284;-74
2021/04/22 05:49:38;;;;;;;0.10;0.10;;;;;;;4.02;75.39;99699.13;5068929;28;20215;-74
2021/04/22 05:52:05;;;;;;;0.10;0.10;;;;;;;4.08;75.53;99709.38;5067723;28;20689;-74
2021/04/22 05:54:33;;;;;;;0.10;0.10;;;;;;;3.99;76.54;99721.41;5071465;28;20201;-74
2021/04/22 05:57:00;;;;;;;0.00;0.00;;;;;;;3.92;77.64;99705.88;5081108;28;20201;-75
2021/04/22 05:59:28;;;;;;;0.10;0.10;;;;;;;3.95;78.24;99730.47;5077190;28;20200;-74
2021/04/22 06:01:56;;;;;;;0.10;0.00;;;;;;;4.10;77.22;99730.53;5075924;28;20250;-74
2021/04/22 06:04:24;;;;;;;0.20;0.10;;;;;;;4.09;76.84;99735.00;5078779;28;20325;-74
2021/04/22 06:06:51;;;;;;;0.20;0.20;;;;;;;4.14;77.23;99734.72;5073945;28;20280;-74
2021/04/22 06:09:18;;;;;;;0.07;0.07;;;;;;;4.06;78.16;99745.81;5075734;28;20197;-74
2021/04/22 06:11:48;;;;;;;0.10;0.10;;;;;;;4.13;77.46;99747.16;5075369;28;20369;-75
2021/04/22 06:14:16;;;;;;;0.20;0.20;;;;;;;3.74;78.85;99708.66;5073119;28;20691;-75
2021/04/22 06:16:46;;;;;;;0.50;0.20;;;;;;;4.19;77.23;99751.25;5072986;28;20204;-75
2021/04/22 06:19:14;;;;;;;4.80;3.20;;;;;;;4.27;76.06;99755.19;5070426;28;20201;-75
2021/04/22 06:21:41;;;;;;;1.30;1.20;;;;;;;4.22;77.56;99746.63;5086541;28;20207;-75
2021/04/22 06:24:11;;;;;;;0.80;0.67;;;;;;;4.33;76.11;99760.16;5078590;28;20249;-74
2021/04/22 06:26:38;;;;;;;0.47;0.47;;;;;;;4.36;77.72;99772.41;5073741;28;20209;-74
2021/04/22 06:29:06;;;;;;;0.03;0.03;;;;;;;4.52;77.13;99761.72;5076936;28;20202;-74
2021/04/22 06:31:33;;;;;;;0.07;0.07;;;;;;;4.34;76.74;99747.72;5076119;28;20210;-75
2021/04/22 06:34:01;;;;;;;0.00;0.00;;;;;;;4.36;76.81;99767.09;5078193;28;20193;-75
2021/04/22 06:36:28;;;;;;;0.20;0.20;;;;;;;4.43;76.16;99770.25;5081619;28;20613;-74
2021/04/22 06:38:56;;;;;;;0.00;0.00;;;;;;;4.54;76.07;99786.41;5078202;28;20261;-75
2021/04/22 06:41:23;;;;;;;0.10;0.10;;;;;;;4.71;74.90;99774.81;5083278;28;20707;-75
2021/04/22 06:43:50;;;;;;;0.20;0.20;;;;;;;4.76;75.22;99762.09;5080670;28;20250;-75
2021/04/22 06:46:18;;;;;;;0.63;0.30;;;;;;;5.04;74.84;99786.06;5069979;28;20204;-74
2021/04/22 06:48:46;;;;;;;0.17;0.03;;;;;;;5.15;74.20;99790.75;5077503;28;20197;-74
2021/04/22 06:51:14;;;;;;;0.37;0.20;;;;;;;5.16;73.50;99787.97;5074433;28;20212;-74
2021/04/22 06:53:41;;;;;;;0.10;0.10;;;;;;;5.20;72.78;99789.53;5072661;28;20204;-74
2021/04/22 06:56:09;;;;;;;0.37;0.37;;;;;;;5.27;72.00;99806.84;5072061;28;20194;-74
2021/04/22 06:58:37;;;;;;;0.10;0.10;;;;;;;5.12;73.04;99801.56;5067944;28;20260;-74
2021/04/22 07:01:04;;;;;;;0.10;0.10;;;;;;;5.18;72.39;99814.50;5076727;28;20212;-74
2021/04/22 07:03:32;;;;;;;0.10;0.10;;;;;;;5.10;72.37;99822.09;5075481;28;20213;-74
2021/04/22 07:05:59;;;;;;;0.20;0.20;;;;;;;4.94;72.57;99803.56;5070221;28;20201;-73
2021/04/22 07:08:27;;;;;;;0.10;0.10;;;;;;;5.00;72.68;99829.78;5077333;28;20240;-73
2021/04/22 07:10:55;;;;;;;0.20;0.20;;;;;;;4.92;73.96;99832.06;5071164;28;20851;-74
2021/04/22 07:13:22;;;;;;;0.20;0.20;;;;;;;4.84;72.92;99829.81;5078161;28;20202;-74
2021/04/22 07:15:49;;;;;;;0.30;0.20;;;;;;;4.79;73.40;99841.69;5072892;28;20233;-73
2021/04/22 07:18:16;;;;;;;0.20;0.20;;;;;;;4.80;73.15;99832.75;5068915;28;20208;-74
2021/04/22 07:20:44;;;;;;;0.37;0.30;;;;;;;4.94;72.34;99852.28;5075257;28;20266;-74
2021/04/22 07:23:13;;;;;;;0.00;0.00;;;;;;;4.89;73.13;99848.16;5077620;28;20205;-74
2021/04/22 07:25:42;;;;;;;0.23;0.23;;;;;;;4.97;72.35;99854.75;5078356;28;20260;-74
2021/04/22 07:28:10;;;;;;;0.00;0.00;;;;;;;4.86;72.88;99835.91;5076168;28;20676;-75
2021/04/22 07:30:39;;;;;;;0.00;0.00;;;;;;;4.95;72.24;99858.47;5076928;28;20207;-74
2021/04/22 07:33:07;;;;;;;0.10;0.10;;;;;;;4.91;71.55;99854.28;5078155;28;20203;-74
2021/04/22 07:35:36;;;;;;;0.10;0.10;;;;;;;4.59;72.14;99821.56;5079493;28;20209;-74
2021/04/22 07:38:05;;;;;;;0.13;0.13;;;;;;;4.71;71.53;99851.91;5073293;28;20200;-74
2021/04/22 07:40:32;;;;;;;0.10;0.07;;;;;;;4.78;70.84;99855.94;5083052;28;20200;-74
2021/04/22 07:43:01;;;;;;;0.10;0.10;;;;;;;4.81;71.20;99880.53;5077176;28;20632;-74
2021/04/22 07:45:31;;;;;;;0.20;0.00;;;;;;;4.79;70.89;99885.09;5086879;28;20216;-74
2021/04/22 07:47:58;;;;;;;0.33;0.10;;;;;;;4.74;71.24;99891.63;5087462;28;20246;-74
2021/04/22 07:50:26;;;;;;;0.10;0.10;;;;;;;4.72;71.06;99896.19;5087741;28;20201;-74
2021/04/22 07:52:53;;;;;;;0.03;0.03;;;;;;;4.77;70.97;99894.09;5099427;28;20681;-74
2021/04/22 07:55:24;;;;;;;0.00;0.00;;;;;;;4.59;71.71;99899.56;5072507;28;20202;-74
2021/04/22 07:57:51;;;;;;;0.17;0.17;;;;;;;4.66;70.89;99900.06;5078630;28;20224;-74
2021/04/22 08:00:22;;;;;;;0.20;0.20;;;;;;;4.72;70.65;99905.00;5076364;28;20209;-74
2021/04/22 08:02:50;;;;;;;1.90;0.30;;;;;;;4.73;69.79;99916.50;5082186;28;20270;-74
2021/04/22 08:05:21;;;;;;;0.10;0.10;;;;;;;4.60;70.79;99911.91;5072025;28;20267;-74
2021/04/22 08:08:04;;;;;;;0.10;0.10;;;;;;;4.47;71.67;99932.13;5070958;28;20212;-74
2021/04/22 08:10:33;;;;;;;0.03;0.03;;;;;;;4.12;73.91;99941.19;5075309;28;20237;-73
2021/04/22 08:13:03;;;;;;;0.10;0.10;;;;;;;3.98;74.12;99953.41;5085613;28;20208;-74
2021/04/22 08:15:32;;;;;;;0.10;0.10;;;;;;;3.96;73.75;99947.31;5075017;28;20446;-74
2021/04/22 08:18:00;;;;;;;0.00;0.00;;;;;;;3.72;74.25;99927.38;5072164;28;20255;-74
2021/04/22 08:20:28;;;;;;;0.00;0.00;;;;;;;3.83;75.00;99967.50;5071780;28;20656;-74
2021/04/22 08:22:57;;;;;;;0.10;0.10;;;;;;;3.88;74.57;99968.09;5079366;28;20193;-74
2021/04/22 08:25:27;;;;;;;0.27;0.20;;;;;;;3.92;74.04;99968.81;5079017;28;20239;-74
2021/04/22 08:27:56;;;;;;;0.30;0.20;;;;;;;3.87;74.15;99987.63;5078252;28;20665;-74
2021/04/22 08:30:29;;;;;;;0.00;0.00;;;;;;;3.62;74.82;99973.91;5076717;28;20197;-75
2021/04/22 08:32:57;;;;;;;0.00;0.00;;;;;;;3.57;75.11;99991.88;5083509;28;20246;-75
2021/04/22 08:35:26;;;;;;;0.10;0.10;;;;;;;3.68;73.32;99994.88;5086562;28;20234;-75
2021/04/22 08:37:53;;;;;;;2.30;0.20;;;;;;;3.51;74.80;99997.50;5086373;28;20242;-76
2021/04/22 08:40:22;;;;;;;0.10;0.10;;;;;;;3.41;75.59;99992.69;5081289;28;20193;-75
2021/04/22 08:42:49;;;;;;;0.00;0.00;;;;;;;3.45;75.14;99995.16;5080893;28;20213;-75
2021/04/22 08:45:18;;;;;;;0.07;0.07;;;;;;;3.27;76.27;99997.81;5081306;28;20217;-75
2021/04/22 08:47:45;;;;;;;0.20;0.20;;;;;;;3.19;75.93;100007.94;5074264;28;20215;-76
2021/04/22 08:50:16;;;;;;;0.10;0.10;;;;;;;3.26;75.59;100009.34;5079189;28;20200;-75
2021/04/22 08:52:48;;;;;;;0.10;0.10;;;;;;;3.18;76.07;100008.88;5082669;28;20228;-76
2021/04/22 08:55:17;;;;;;;0.07;0.07;;;;;;;2.74;76.40;99977.41;5086168;28;20682;-76
2021/04/22 08:57:45;;;;;;;0.40;0.13;;;;;;;2.97;76.63;100012.56;5077937;28;20188;-73
2021/04/22 09:00:15;;;;;;;0.10;0.10;;;;;;;2.87;77.01;100013.97;5074549;28;20292;-74
2021/04/22 09:02:43;;;;;;;0.10;0.10;;;;;;;2.81;76.82;100028.38;5083348;28;20250;-73
2021/04/22 09:05:12;;;;;;;0.20;0.20;;;;;;;2.69;77.19;100013.88;5071192;28;20193;-73
2021/04/22 09:07:41;;;;;;;0.47;0.23;;;;;;;2.35;77.76;99977.50;5074706;28;20197;-73
2021/04/22 09:10:10;;;;;;;2.57;0.20;;;;;;;2.70;77.19;100033.31;5073965;28;20200;-72
2021/04/22 09:12:37;;;;;;;0.30;0.10;;;;;;;2.52;77.40;100011.19;5079821;28;20222;-73
2021/04/22 09:15:08;;;;;;;0.33;0.10;;;;;;;2.63;76.94;100027.44;5071140;28;20292;-73
2021/04/22 09:17:36;;;;;;;0.10;0.10;;;;;;;2.40;78.28;99994.06;5070555;28;20193;-73
2021/04/22 09:20:06;;;;;;;1.80;0.20;;;;;;;2.65;78.31;100038.81;5073408;28;20686;-72
2021/04/22 09:22:35;;;;;;;0.20;0.10;;;;;;;2.73;77.95;100039.31;5080291;28;20299;-73
2021/04/22 09:25:19;;;;;;;0.00;0.00;;;;;;;2.85;77.91;100050.28;5070765;28;20196;-73
2021/04/22 09:27:47;;;;;;;0.10;0.10;;;;;;;3.06;75.37;100049.25;5074924;28;20410;-73
2021/04/22 09:30:17;;;;;;;0.23;0.20;;;;;;;3.11;76.06;100053.41;5076267;28;20193;-74
2021/04/22 09:32:44;;;;;;;0.07;0.07;;;;;;;2.93;76.14;100050.78;5070028;28;20231;-73
2021/04/22 09:35:15;;;;;;;0.10;0.10;;;;;;;2.88;76.67;100071.34;5070253;28;20221;-73
2021/04/22 09:37:46;;;;;;;0.00;0.00;;;;;;;2.91;76.70;100065.91;5069933;28;20580;-76
2021/04/22 09:40:22;;;;;;;0.10;0.10;;;;;;;2.85;77.82;100075.00;5082153;28;20291;-76
2021/04/22 09:42:51;;;;;;;0.97;0.20;;;;;;;2.57;78.76;100033.03;5074822;28;20399;-76
2021/04/22 09:45:22;;;;;;;0.20;0.10;;;;;;;2.80;78.63;100072.56;5071236;28;20241;-76
2021/04/22 09:47:59;;;;;;;0.23;0.23;;;;;;;2.93;78.63;100064.03;5080748;28;20207;-76
2021/04/22 09:50:29;;;;;;;0.10;0.10;;;;;;;2.93;79.03;100066.69;5075200;28;20200;-76
2021/04/22 09:52:59;;;;;;;0.00;0.00;;;;;;;2.94;77.26;100025.97;5086090;28;20261;-76
2021/04/22 09:55:29;;;;;;;0.23;0.23;;;;;;;3.14;77.61;100063.03;5073695;28;20749;-76
2021/04/22 09:57:57;;;;;;;0.00;0.00;;;;;;;3.25;78.39;100079.25;5079473;28;20271;-75
2021/04/22 10:00:28;;;;;;;0.07;0.07;;;;;;;3.37;77.62;100099.91;5075895;28;20203;-75
2021/04/22 10:02:58;;;;;;;3.90;0.10;;;;;;;3.38;78.68;100085.72;5074166;28;20200;-76
2021/04/22 10:05:27;;;;;;;0.77;0.03;;;;;;;3.57;77.97;100084.78;5081816;28;20205;-76
2021/04/22 10:08:05;;;;;;;0.27;0.20;;;;;;;3.74;77.17;100090.13;5075966;28;20203;-76
2021/04/22 10:10:34;;;;;;;0.00;0.00;;;;;;;3.89;75.93;100084.03;5077810;28;20286;-76
2021/04/22 10:13:03;;;;;;;0.30;0.20;;;;;;;3.76;76.70;100098.88;5069485;28;20567;-76
2021/04/22 10:15:32;;;;;;;0.00;0.00;;;;;;;3.76;76.49;100072.31;5071815;28;20225;-76
2021/04/22 10:18:01;;;;;;;0.40;0.17;;;;;;;3.95;75.76;100102.28;5078136;28;20621;-75
2021/04/22 10:20:31;;;;;;;0.13;0.13;;;;;;;3.73;77.51;100072.47;5070382;28;20205;-76
2021/04/22 10:22:59;;;;;;;0.20;0.10;;;;;;;3.85;77.89;100113.47;5069139;28;20216;-75
2021/04/22 10:25:28;;;;;;;1.10;0.30;;;;;;;3.98;76.94;100111.91;5072857;28;20189;-75
2021/04/22 10:28:02;;;;;;;0.03;0.03;;;;;;;3.93;75.62;100119.25;5071263;28;20258;-75
2021/04/22 10:30:30;;;;;;;0.10;0.10;;;;;;;3.79;74.84;100111.13;5074379;28;20228;-75
2021/04/22 10:32:57;;;;;;;0.17;0.17;;;;;;;3.72;75.96;100129.16;5071748;28;20227;-76
2021/04/22 10:35:31;;;;;;;0.13;0.13;;;;;;;3.83;75.59;100137.44;5076663;28;20220;-75
2021/04/22 10:38:00;;;;;;;0.10;0.10;;;;;;;3.66;74.90;100103.75;5077619;28;20709;-76
2021/04/22 10:40:29;;;;;;;0.00;0.00;;;;;;;3.39;75.65;100090.09;5074980;28;20200;-75
2021/04/22 10:43:00;;;;;;;0.10;0.10;;;;;;;3.67;75.88;100152.41;5078380;28;20201;-75
2021/04/22 10:45:28;;;;;;;0.73;0.30;;;;;;;3.71;75.80;100160.16;5080494;28;20608;-75
2021/04/22 10:47:55;;;;;;;1.70;0.20;;;;;;;3.70;75.88;100160.25;5070495;28;20644;-75
2021/04/22 10:50:27;;;;;;;0.50;0.50;;;;;;;3.73;75.60;100154.78;5080230;28;20556;-76
2021/04/22 10:52:55;;;;;;;0.10;0.10;;;;;;;3.79;75.27;100173.06;5074941;28;20196;-75
2021/04/22 10:55:25;;;;;;;0.00;0.00;;;;;;;3.92;76.21;100178.63;5079867;28;20224;-75
2021/04/22 10:57:54;;;;;;;0.00;0.00;;;;;;;3.98;75.50;100187.16;5075139;28;20266;-75
2021/04/22 11:00:24;;;;;;;0.10;0.10;;;;;;;3.62;75.48;100141.16;5075919;28;20193;-75
2021/04/22 11:02:54;;;;;;;0.10;0.10;;;;;;;3.92;74.93;100184.78;5076096;28;20650;-76
2021/04/22 11:05:25;;;;;;;0.17;0.17;;;;;;;3.95;75.90;100178.47;5076519;28;20209;-76
2021/04/22 11:07:58;;;;;;;0.00;0.00;;;;;;;4.10;74.91;100193.66;5080798;28;20662;-75
2021/04/22 11:10:38;;;;;;;0.20;0.20;;;;;;;4.08;76.88;100195.53;5081208;28;20636;-76
2021/04/22 11:13:15;;;;;;;3.60;0.20;;;;;;;4.15;75.24;100207.56;5084222;28;20622;-76
2021/04/22 11:15:57;;;;;;;0.10;0.03;;;;;;;4.19;75.38;100205.59;5082320;28;20231;-76
2021/04/22 11:18:35;;;;;;;0.00;0.00;;;;;;;4.13;73.68;100208.56;5078555;28;20205;-76
2021/04/22 11:21:05;;;;;;;0.00;0.00;;;;;;;3.99;75.09;100222.56;5081573;28;20204;-76
2021/04/22 11:23:42;;;;;;;0.10;0.10;;;;;;;4.00;74.78;100203.03;5075153;28;20254;-73
2021/04/22 11:26:21;;;;;;;0.00;0.00;;;;;;;3.72;74.85;100177.81;5079819;28;20250;-74
2021/04/22 11:28:50;;;;;;;0.00;0.00;;;;;;;4.00;75.09;100230.44;5078642;28;20259;-76
2021/04/22 11:31:20;;;;;;;0.00;0.00;;;;;;;3.92;74.24;100237.91;5079551;28;20200;-76
2021/04/22 11:33:51;;;;;;;0.30;0.13;;;;;;;3.73;75.31;100242.41;5082435;28;20454;-76
2021/04/22 11:36:24;;;;;;;0.30;0.10;;;;;;;3.72;75.38;100246.00;5073730;28;20213;-76
2021/04/22 11:38:57;;;;;;;0.03;0.03;;;;;;;3.63;75.82;100251.72;5083184;28;20216;-76
2021/04/22 11:41:28;;;;;;;0.00;0.00;;;;;;;3.36;74.84;100196.34;5078385;28;20281;-76
2021/04/22 11:44:05;;;;;;;0.10;0.10;;;;;;;3.64;75.15;100249.00;5075863;28;20213;-76
2021/04/22 11:46:35;;;;;;;0.00;0.00;;;;;;;3.37;76.45;100251.16;5081999;28;20203;-76